createdAt,value
2023-02-12T00:00:56.168Z,44.37
2023-02-12T00:01:56.166Z,44.27
2023-02-12T00:02:56.074Z,44.27
2023-02-12T00:03:56.278Z,44.27
2023-02-12T00:04:56.081Z,44.27
2023-02-12T00:05:56.435Z,44.17
2023-02-12T00:06:56.081Z,44.17
2023-02-12T00:07:55.967Z,44.17
2023-02-12T00:08:56.040Z,44.17
2023-02-12T00:09:56.288Z,44.17
2023-02-12T00:10:56.730Z,44.17
2023-02-12T00:11:55.928Z,44.07
2023-02-12T00:12:55.981Z,44.07
2023-02-12T00:13:55.909Z,44.07
2023-02-12T00:14:55.921Z,44.07
2023-02-12T00:15:56.401Z,44.07
2023-02-12T00:16:55.948Z,44.07
2023-02-12T00:17:55.837Z,44.07
2023-02-12T00:18:55.992Z,44.07
2023-02-12T00:19:55.818Z,44.07
2023-02-12T00:20:55.846Z,44.17
2023-02-12T00:21:56.369Z,44.17
2023-02-12T00:22:55.870Z,44.17
2023-02-12T00:23:55.789Z,44.17
2023-02-12T00:24:56.152Z,44.27
2023-02-12T00:25:56.067Z,44.27
2023-02-12T00:26:55.730Z,44.27
2023-02-12T00:27:55.967Z,44.27
2023-02-12T00:28:56.543Z,44.27
2023-02-12T00:29:55.698Z,44.27
2023-02-12T00:30:55.877Z,44.27
2023-02-12T00:31:55.840Z,44.27
2023-02-12T00:32:55.694Z,44.27
2023-02-12T00:33:56.155Z,44.27
2023-02-12T00:34:55.698Z,44.37
2023-02-12T00:35:56.014Z,44.47
2023-02-12T00:36:55.666Z,44.47
2023-02-12T00:37:55.776Z,44.47
2023-02-12T00:38:55.624Z,44.59
2023-02-12T00:39:55.937Z,44.59
2023-02-12T00:40:55.600Z,44.57
2023-02-12T00:41:55.493Z,44.57
2023-02-12T00:42:55.558Z,44.67
2023-02-12T00:43:55.485Z,44.57
2023-02-12T00:44:55.521Z,44.67
2023-02-12T00:45:56.139Z,44.67
2023-02-12T00:46:55.465Z,44.89
2023-02-12T00:47:55.436Z,44.89
2023-02-12T00:48:55.533Z,44.89
2023-02-12T00:49:55.436Z,45.00
2023-02-12T00:50:55.367Z,44.89
2023-02-12T00:51:56.135Z,45.00
2023-02-12T00:52:55.568Z,45.00
2023-02-12T00:53:55.362Z,45.00
2023-02-12T00:54:55.384Z,45.00
2023-02-12T00:55:55.700Z,45.00
2023-02-12T00:56:55.317Z,45.00
2023-02-12T00:57:55.730Z,45.09
2023-02-12T00:58:55.318Z,45.09
2023-02-12T00:59:55.274Z,45.09
2023-02-12T01:00:55.324Z,45.09
2023-02-12T01:01:55.358Z,45.20
2023-02-12T01:02:55.221Z,45.20
2023-02-12T01:03:56.596Z,45.20
2023-02-12T01:04:55.239Z,45.09
2023-02-12T01:05:55.574Z,45.20
2023-02-12T01:06:55.199Z,45.20
2023-02-12T01:07:55.182Z,45.20
2023-02-12T01:08:55.180Z,45.29
2023-02-12T01:09:55.643Z,45.29
2023-02-12T01:10:55.107Z,45.29
2023-02-12T01:11:55.118Z,45.20
2023-02-12T01:12:55.125Z,45.20
2023-02-12T01:13:55.103Z,45.20
2023-02-12T01:14:55.071Z,45.29
2023-02-12T01:15:55.577Z,45.29
2023-02-12T01:16:55.052Z,45.29
2023-02-12T01:17:55.010Z,45.29
2023-02-12T01:18:56.121Z,45.39
2023-02-12T01:19:54.990Z,45.39
2023-02-12T01:20:55.098Z,45.39
2023-02-12T01:21:55.049Z,45.39
2023-02-12T01:22:55.046Z,45.29
2023-02-12T01:23:55.011Z,45.39
2023-02-12T01:24:54.958Z,45.39
2023-02-12T01:25:55.209Z,45.39
2023-02-12T01:26:55.103Z,45.29
2023-02-12T01:27:55.219Z,45.39
2023-02-12T01:28:54.848Z,45.39
2023-02-12T01:29:54.931Z,45.50
2023-02-12T01:30:54.976Z,45.39
2023-02-12T01:31:54.987Z,45.50
2023-02-12T01:32:54.779Z,45.50
2023-02-12T01:33:55.285Z,45.39
2023-02-12T01:34:54.798Z,45.39
2023-02-12T01:35:55.134Z,45.39
2023-02-12T01:36:54.809Z,45.39
2023-02-12T01:37:56.839Z,45.39
2023-02-12T01:38:54.732Z,45.39
2023-02-12T01:39:55.414Z,45.29
2023-02-12T01:40:54.680Z,45.39
2023-02-12T01:41:54.683Z,45.39
2023-02-12T01:42:54.782Z,45.50
2023-02-12T01:43:54.673Z,45.39
2023-02-12T01:44:54.786Z,45.29
2023-02-12T01:45:55.110Z,45.39
2023-02-12T01:46:54.698Z,45.29
2023-02-12T01:47:54.610Z,45.39
2023-02-12T01:48:54.690Z,45.39
2023-02-12T01:49:54.687Z,45.39
2023-02-12T01:50:54.545Z,45.39
2023-02-12T01:51:54.961Z,45.39
2023-02-12T01:52:54.516Z,45.39
2023-02-12T01:53:54.521Z,45.39
2023-02-12T01:54:57.094Z,45.39
2023-02-12T01:55:55.001Z,45.39
2023-02-12T01:56:54.484Z,45.39
2023-02-12T01:57:54.817Z,45.39
2023-02-12T01:58:54.472Z,45.29
2023-02-12T01:59:54.476Z,45.39
2023-02-12T02:00:54.551Z,45.29
2023-02-12T02:01:54.446Z,45.39
2023-02-12T02:02:54.471Z,45.29
2023-02-12T02:03:54.470Z,45.50
2023-02-12T02:04:54.781Z,45.50
2023-02-12T02:05:55.477Z,45.50
2023-02-12T02:06:54.431Z,45.39
2023-02-12T02:07:54.393Z,45.39
2023-02-12T02:08:54.284Z,45.39
2023-02-12T02:09:54.452Z,45.39
2023-02-12T02:10:54.265Z,45.29
2023-02-12T02:11:54.274Z,45.29
2023-02-12T02:12:54.378Z,45.39
2023-02-12T02:13:54.610Z,45.39
2023-02-12T02:14:54.376Z,45.39
2023-02-12T02:15:54.711Z,45.39
2023-02-12T02:16:54.225Z,45.39
2023-02-12T02:17:54.185Z,45.39
2023-02-12T02:18:54.202Z,45.50
2023-02-12T02:19:54.222Z,45.50
2023-02-12T02:20:54.139Z,45.50
2023-02-12T02:21:54.277Z,45.39
2023-02-12T02:22:54.273Z,45.39
2023-02-12T02:23:54.083Z,45.39
2023-02-12T02:24:54.197Z,45.39
2023-02-12T02:25:54.468Z,45.39
2023-02-12T02:26:54.043Z,45.50
2023-02-12T02:27:54.045Z,45.50
2023-02-12T02:28:54.816Z,45.39
2023-02-12T02:29:54.022Z,45.50
2023-02-12T02:30:54.415Z,45.59
2023-02-12T02:31:54.076Z,45.59
2023-02-12T02:32:53.968Z,45.50
2023-02-12T02:33:53.976Z,45.50
2023-02-12T02:34:53.995Z,45.50
2023-02-12T02:35:54.215Z,45.50
2023-02-12T02:37:00.640Z,45.50
2023-02-12T02:37:54.890Z,45.50
2023-02-12T02:38:53.884Z,45.50
2023-02-12T02:39:53.963Z,45.50
2023-02-12T02:40:53.991Z,45.50
2023-02-12T02:41:53.825Z,45.50
2023-02-12T02:42:53.874Z,45.50
2023-02-12T02:43:53.816Z,45.39
2023-02-12T02:44:53.769Z,45.39
2023-02-12T02:45:54.281Z,45.39
2023-02-12T02:46:53.910Z,45.39
2023-02-12T02:47:53.777Z,45.39
2023-02-12T02:48:53.799Z,45.50
2023-02-12T02:49:53.769Z,45.50
2023-02-12T02:50:53.709Z,45.50
2023-02-12T02:51:53.772Z,45.50
2023-02-12T02:52:54.191Z,45.50
2023-02-12T02:53:53.780Z,45.50
2023-02-12T02:54:53.702Z,45.50
2023-02-12T02:55:54.016Z,45.50
2023-02-12T02:56:53.861Z,45.50
2023-02-12T02:57:53.791Z,45.50
2023-02-12T02:58:54.207Z,45.51
2023-02-12T02:59:53.597Z,45.59
2023-02-12T03:00:53.975Z,45.59
2023-02-12T03:01:53.553Z,45.59
2023-02-12T03:02:53.596Z,45.59
2023-02-12T03:03:53.543Z,45.59
2023-02-12T03:04:53.590Z,45.59
2023-02-12T03:05:53.920Z,45.59
2023-02-12T03:06:53.512Z,45.69
2023-02-12T03:07:53.568Z,45.62
2023-02-12T03:08:53.447Z,45.59
2023-02-12T03:09:53.487Z,45.59
2023-02-12T03:10:53.642Z,45.59
2023-02-12T03:11:53.425Z,45.72
2023-02-12T03:12:53.452Z,45.81
2023-02-12T03:13:53.404Z,45.79
2023-02-12T03:14:53.394Z,45.69
2023-02-12T03:15:53.545Z,45.79
2023-02-12T03:16:53.865Z,45.92
2023-02-12T03:17:53.324Z,45.89
2023-02-12T03:18:53.328Z,45.81
2023-02-12T03:19:53.463Z,45.81
2023-02-12T03:20:53.308Z,45.81
2023-02-12T03:21:53.268Z,45.81
2023-02-12T03:22:53.343Z,45.69
2023-02-12T03:23:53.271Z,45.72
2023-02-12T03:24:53.259Z,45.72
2023-02-12T03:25:53.515Z,45.81
2023-02-12T03:26:53.209Z,45.81
2023-02-12T03:27:53.195Z,45.81
2023-02-12T03:28:53.271Z,45.81
2023-02-12T03:29:53.194Z,45.92
2023-02-12T03:30:53.218Z,45.92
2023-02-12T03:31:53.231Z,45.81
2023-02-12T03:32:53.132Z,45.92
2023-02-12T03:33:53.144Z,45.92
2023-02-12T03:34:53.269Z,45.92
2023-02-12T03:35:53.442Z,45.81
2023-02-12T03:36:53.132Z,45.92
2023-02-12T03:37:53.119Z,46.01
2023-02-12T03:38:53.072Z,45.92
2023-02-12T03:39:53.037Z,45.92
2023-02-12T03:40:53.085Z,45.92
2023-02-12T03:41:52.992Z,45.92
2023-02-12T03:42:54.961Z,45.81
2023-02-12T03:43:52.967Z,45.81
2023-02-12T03:44:52.967Z,45.81
2023-02-12T03:45:53.061Z,45.69
2023-02-12T03:46:54.204Z,45.81
2023-02-12T03:47:52.924Z,45.92
2023-02-12T03:48:53.007Z,45.81
2023-02-12T03:49:52.904Z,45.81
2023-02-12T03:50:52.880Z,45.92
2023-02-12T03:51:52.858Z,45.92
2023-02-12T03:52:52.955Z,45.92
2023-02-12T03:53:52.828Z,45.92
2023-02-12T03:54:52.859Z,45.92
2023-02-12T03:55:52.871Z,46.01
2023-02-12T03:56:52.751Z,45.92
2023-02-12T03:57:52.785Z,45.92
2023-02-12T03:58:52.862Z,45.92
2023-02-12T03:59:52.783Z,45.92
2023-02-12T04:00:52.861Z,45.92
2023-02-12T04:01:52.929Z,45.92
2023-02-12T04:02:52.677Z,45.92
2023-02-12T04:03:52.742Z,45.92
2023-02-12T04:04:53.088Z,45.92
2023-02-12T04:05:52.823Z,45.92
2023-02-12T04:06:52.700Z,45.92
2023-02-12T04:07:52.685Z,45.92
2023-02-12T04:08:52.596Z,45.92
2023-02-12T04:09:52.606Z,45.81
2023-02-12T04:10:52.776Z,45.81
2023-02-12T04:11:52.573Z,45.81
2023-02-12T04:12:52.580Z,45.81
2023-02-12T04:13:52.573Z,45.81
2023-02-12T04:14:52.557Z,45.81
2023-02-12T04:15:52.539Z,45.81
2023-02-12T04:16:52.920Z,45.81
2023-02-12T04:17:52.509Z,45.81
2023-02-12T04:18:52.605Z,45.92
2023-02-12T04:19:52.461Z,45.92
2023-02-12T04:20:52.450Z,45.92
2023-02-12T04:21:52.444Z,45.92
2023-02-12T04:22:52.673Z,45.92
2023-02-12T04:23:52.396Z,45.92
2023-02-12T04:24:52.463Z,45.92
2023-02-12T04:25:52.393Z,45.92
2023-02-12T04:26:52.364Z,45.92
2023-02-12T04:27:52.371Z,45.92
2023-02-12T04:28:52.556Z,45.81
2023-02-12T04:29:52.327Z,45.92
2023-02-12T04:30:52.472Z,45.92
2023-02-12T04:31:52.329Z,45.92
2023-02-12T04:32:52.320Z,45.81
2023-02-12T04:33:52.303Z,45.92
2023-02-12T04:34:52.334Z,45.92
2023-02-12T04:35:52.299Z,45.92
2023-02-12T04:36:52.235Z,45.92
2023-02-12T04:37:52.237Z,45.92
2023-02-12T04:38:52.184Z,45.92
2023-02-12T04:39:52.251Z,45.81
2023-02-12T04:40:52.285Z,45.92
2023-02-12T04:41:52.205Z,45.92
2023-02-12T04:42:52.225Z,45.92
2023-02-12T04:43:52.145Z,45.92
2023-02-12T04:44:52.185Z,45.92
2023-02-12T04:45:52.276Z,45.92
2023-02-12T04:46:52.330Z,45.92
2023-02-12T04:47:52.107Z,45.92
2023-02-12T04:48:52.433Z,45.92
2023-02-12T04:49:52.044Z,45.92
2023-02-12T04:50:52.036Z,45.92
2023-02-12T04:51:52.057Z,45.92
2023-02-12T04:52:52.117Z,45.92
2023-02-12T04:53:52.120Z,45.92
2023-02-12T04:54:52.001Z,45.92
2023-02-12T04:55:52.004Z,45.92
2023-02-12T04:56:51.958Z,45.92
2023-02-12T04:57:51.924Z,45.92
2023-02-12T04:58:52.303Z,45.92
2023-02-12T04:59:51.912Z,45.92
2023-02-12T05:00:51.895Z,45.92
2023-02-12T05:01:52.443Z,45.92
2023-02-12T05:02:51.844Z,45.92
2023-02-12T05:03:51.902Z,45.92
2023-02-12T05:04:52.372Z,45.92
2023-02-12T05:05:51.812Z,45.92
2023-02-12T05:06:51.884Z,45.92
2023-02-12T05:07:51.883Z,45.92
2023-02-12T05:08:52.011Z,46.01
2023-02-12T05:09:51.739Z,45.92
2023-02-12T05:10:52.224Z,45.92
2023-02-12T05:11:51.767Z,45.92
2023-02-12T05:12:51.787Z,46.01
2023-02-12T05:13:51.690Z,45.92
2023-02-12T05:14:52.692Z,45.92
2023-02-12T05:15:51.711Z,45.92
2023-02-12T05:16:51.790Z,45.92
2023-02-12T05:17:51.618Z,45.92
2023-02-12T05:18:51.905Z,46.01
2023-02-12T05:19:51.601Z,45.92
2023-02-12T05:20:51.630Z,46.01
2023-02-12T05:21:51.854Z,46.01
2023-02-12T05:22:51.768Z,46.01
2023-02-12T05:23:51.574Z,46.01
2023-02-12T05:24:51.616Z,46.01
2023-02-12T05:25:51.505Z,45.92
2023-02-12T05:26:51.615Z,46.01
2023-02-12T05:27:51.529Z,45.92
2023-02-12T05:28:52.177Z,46.01
2023-02-12T05:29:51.493Z,45.92
2023-02-12T05:30:51.604Z,45.92
2023-02-12T05:31:51.539Z,46.01
2023-02-12T05:32:51.456Z,46.01
2023-02-12T05:33:51.480Z,46.01
2023-02-12T05:34:51.892Z,46.01
2023-02-12T05:35:51.402Z,46.01
2023-02-12T05:36:51.448Z,46.01
2023-02-12T05:37:51.424Z,46.01
2023-02-12T05:38:51.368Z,46.01
2023-02-12T05:39:51.319Z,46.01
2023-02-12T05:40:51.719Z,46.01
2023-02-12T05:41:51.278Z,46.01
2023-02-12T05:42:51.351Z,46.01
2023-02-12T05:43:51.414Z,46.01
2023-02-12T05:44:51.303Z,46.01
2023-02-12T05:45:51.994Z,46.01
2023-02-12T05:46:52.187Z,46.01
2023-02-12T05:47:51.227Z,46.01
2023-02-12T05:48:51.324Z,46.01
2023-02-12T05:49:51.158Z,46.01
2023-02-12T05:50:53.197Z,46.04
2023-02-12T05:51:51.157Z,46.04
2023-02-12T05:52:52.374Z,46.12
2023-02-12T05:53:51.703Z,46.04
2023-02-12T05:54:51.178Z,46.04
2023-02-12T05:55:51.381Z,46.01
2023-02-12T05:56:51.101Z,46.01
2023-02-12T05:57:51.066Z,46.14
2023-02-12T05:58:51.682Z,46.14
2023-02-12T05:59:51.016Z,46.14
2023-02-12T06:00:51.149Z,46.14
2023-02-12T06:01:51.036Z,46.14
2023-02-12T06:02:51.074Z,46.14
2023-02-12T06:03:51.100Z,46.14
2023-02-12T06:04:51.504Z,46.14
2023-02-12T06:05:51.116Z,46.14
2023-02-12T06:06:51.068Z,46.24
2023-02-12T06:07:51.077Z,46.24
2023-02-12T06:08:50.997Z,46.24
2023-02-12T06:09:50.994Z,46.24
2023-02-12T06:10:51.469Z,46.24
2023-02-12T06:11:50.858Z,46.24
2023-02-12T06:12:51.116Z,46.22
2023-02-12T06:13:50.858Z,46.14
2023-02-12T06:14:50.864Z,46.24
2023-02-12T06:15:50.960Z,46.24
2023-02-12T06:16:51.352Z,46.24
2023-02-12T06:17:50.820Z,46.24
2023-02-12T06:18:50.996Z,46.24
2023-02-12T06:19:50.795Z,46.24
2023-02-12T06:20:50.858Z,46.24
2023-02-12T06:21:50.744Z,46.24
2023-02-12T06:22:50.885Z,46.24
2023-02-12T06:23:50.722Z,46.24
2023-02-12T06:24:50.758Z,46.24
2023-02-12T06:25:51.463Z,46.24
2023-02-12T06:26:50.741Z,46.34
2023-02-12T06:27:50.631Z,46.24
2023-02-12T06:28:50.796Z,46.31
2023-02-12T06:29:50.600Z,46.34
2023-02-12T06:30:50.791Z,46.34
2023-02-12T06:31:50.838Z,46.34
2023-02-12T06:32:51.354Z,46.34
2023-02-12T06:33:50.731Z,46.34
2023-02-12T06:34:51.051Z,46.34
2023-02-12T06:35:51.377Z,46.34
2023-02-12T06:36:50.670Z,46.34
2023-02-12T06:37:50.675Z,46.34
2023-02-12T06:38:50.616Z,46.31
2023-02-12T06:39:50.559Z,46.34
2023-02-12T06:40:51.330Z,46.34
2023-02-12T06:41:50.507Z,46.34
2023-02-12T06:42:50.536Z,46.34
2023-02-12T06:43:50.423Z,46.44
2023-02-12T06:44:52.993Z,46.34
2023-02-12T06:45:50.419Z,46.34
2023-02-12T06:46:50.443Z,46.34
2023-02-12T06:47:50.413Z,46.34
2023-02-12T06:48:50.480Z,46.34
2023-02-12T06:49:50.331Z,46.34
2023-02-12T06:50:50.445Z,46.34
2023-02-12T06:51:50.350Z,46.34
2023-02-12T06:52:51.396Z,46.34
2023-02-12T06:53:50.410Z,46.34
2023-02-12T06:54:50.377Z,46.34
2023-02-12T06:55:50.389Z,46.34
2023-02-12T06:56:50.372Z,46.34
2023-02-12T06:57:50.244Z,46.31
2023-02-12T06:58:50.295Z,46.34
2023-02-12T06:59:50.179Z,46.44
2023-02-12T07:00:50.322Z,46.44
2023-02-12T07:01:50.173Z,46.44
2023-02-12T07:02:50.671Z,46.44
2023-02-12T07:03:50.364Z,46.44
2023-02-12T07:04:50.260Z,46.44
2023-02-12T07:05:50.110Z,46.34
2023-02-12T07:06:50.199Z,46.44
2023-02-12T07:07:50.363Z,46.44
2023-02-12T07:08:50.529Z,46.44
2023-02-12T07:09:50.069Z,46.44
2023-02-12T07:10:50.074Z,46.44
2023-02-12T07:11:50.173Z,46.44
2023-02-12T07:12:50.203Z,46.44
2023-02-12T07:13:50.192Z,46.44
2023-02-12T07:14:50.250Z,46.44
2023-02-12T07:15:50.127Z,46.44
2023-02-12T07:16:50.608Z,46.44
2023-02-12T07:17:50.004Z,46.44
2023-02-12T07:18:50.071Z,46.44
2023-02-12T07:19:50.010Z,46.44
2023-02-12T07:20:50.111Z,46.54
2023-02-12T07:21:50.050Z,46.54
2023-02-12T07:22:50.086Z,46.54
2023-02-12T07:23:51.390Z,46.54
2023-02-12T07:24:49.930Z,46.54
2023-02-12T07:25:49.840Z,46.51
2023-02-12T07:26:49.923Z,46.54
2023-02-12T07:27:49.866Z,46.62
2023-02-12T07:28:49.882Z,46.62
2023-02-12T07:29:49.796Z,46.51
2023-02-12T07:30:49.847Z,46.51
2023-02-12T07:31:49.756Z,46.64
2023-02-12T07:32:50.223Z,46.62
2023-02-12T07:33:49.860Z,46.62
2023-02-12T07:34:49.817Z,46.62
2023-02-12T07:35:49.674Z,46.62
2023-02-12T07:36:49.762Z,46.62
2023-02-12T07:37:49.803Z,46.72
2023-02-12T07:38:49.977Z,46.72
2023-02-12T07:39:49.667Z,46.72
2023-02-12T07:40:49.637Z,46.72
2023-02-12T07:41:49.596Z,46.81
2023-02-12T07:42:49.649Z,46.81
2023-02-12T07:43:49.791Z,46.84
2023-02-12T07:44:49.736Z,46.81
2023-02-12T07:45:49.595Z,46.94
2023-02-12T07:46:49.576Z,46.94
2023-02-12T07:47:49.521Z,46.92
2023-02-12T07:48:49.625Z,46.92
2023-02-12T07:49:49.524Z,46.92
2023-02-12T07:50:50.315Z,46.92
2023-02-12T07:51:49.510Z,47.04
2023-02-12T07:52:49.543Z,47.02
2023-02-12T07:53:49.425Z,47.02
2023-02-12T07:54:49.676Z,47.04
2023-02-12T07:55:49.434Z,47.02
2023-02-12T07:56:49.489Z,47.02
2023-02-12T07:57:49.397Z,47.02
2023-02-12T07:58:49.436Z,47.02
2023-02-12T07:59:49.396Z,47.02
2023-02-12T08:00:49.399Z,47.11
2023-02-12T08:01:49.308Z,47.11
2023-02-12T08:02:49.837Z,47.02
2023-02-12T08:03:49.471Z,47.11
2023-02-12T08:04:49.408Z,47.02
2023-02-12T08:05:49.290Z,47.11
2023-02-12T08:06:49.310Z,47.02
2023-02-12T08:07:49.284Z,47.11
2023-02-12T08:08:49.651Z,47.11
2023-02-12T08:09:49.230Z,47.11
2023-02-12T08:10:49.311Z,47.11
2023-02-12T08:11:49.587Z,47.11
2023-02-12T08:12:49.257Z,47.11
2023-02-12T08:13:49.188Z,47.02
2023-02-12T08:14:49.912Z,47.11
2023-02-12T08:15:49.121Z,47.11
2023-02-12T08:16:49.296Z,47.02
2023-02-12T08:17:49.149Z,47.02
2023-02-12T08:18:49.230Z,47.11
2023-02-12T08:19:49.114Z,47.11
2023-02-12T08:20:49.364Z,47.11
2023-02-12T08:21:49.081Z,47.22
2023-02-12T08:22:49.195Z,47.31
2023-02-12T08:23:49.022Z,47.42
2023-02-12T08:24:49.087Z,47.42
2023-02-12T08:25:49.049Z,47.61
2023-02-12T08:26:49.249Z,47.61
2023-02-12T08:27:49.010Z,47.61
2023-02-12T08:28:49.053Z,47.61
2023-02-12T08:29:48.978Z,47.61
2023-02-12T08:30:49.066Z,47.72
2023-02-12T08:31:48.972Z,47.72
2023-02-12T08:32:49.358Z,47.69
2023-02-12T08:33:49.696Z,47.69
2023-02-12T08:34:48.926Z,47.79
2023-02-12T08:35:48.898Z,47.89
2023-02-12T08:36:48.963Z,47.89
2023-02-12T08:37:48.872Z,47.89
2023-02-12T08:38:49.649Z,47.99
2023-02-12T08:39:48.796Z,47.99
2023-02-12T08:40:48.922Z,47.99
2023-02-12T08:41:48.754Z,47.99
2023-02-12T08:42:48.837Z,47.99
2023-02-12T08:43:49.308Z,47.99
2023-02-12T08:44:49.803Z,47.89
2023-02-12T08:45:48.851Z,47.99
2023-02-12T08:46:48.726Z,47.99
2023-02-12T08:47:48.736Z,48.10
2023-02-12T08:48:48.749Z,48.19
2023-02-12T08:49:48.691Z,48.19
2023-02-12T08:50:48.935Z,48.10
2023-02-12T08:51:49.132Z,47.99
2023-02-12T08:52:48.643Z,47.79
2023-02-12T08:53:48.612Z,47.69
2023-02-12T08:54:48.663Z,47.57
2023-02-12T08:55:48.628Z,47.47
2023-02-12T08:56:49.332Z,47.47
2023-02-12T08:57:49.177Z,47.47
2023-02-12T08:58:48.564Z,47.47
2023-02-12T08:59:48.507Z,47.47
2023-02-12T09:00:48.591Z,47.57
2023-02-12T09:01:48.482Z,47.57
2023-02-12T09:02:48.805Z,47.67
2023-02-12T09:03:48.611Z,47.67
2023-02-12T09:04:48.468Z,47.67
2023-02-12T09:05:48.488Z,47.67
2023-02-12T09:06:48.475Z,47.77
2023-02-12T09:07:49.377Z,47.77
2023-02-12T09:08:49.157Z,47.67
2023-02-12T09:09:48.526Z,47.77
2023-02-12T09:10:48.855Z,47.67
2023-02-12T09:11:48.404Z,47.77
2023-02-12T09:12:48.666Z,47.77
2023-02-12T09:13:48.302Z,47.75
2023-02-12T09:14:48.423Z,47.75
2023-02-12T09:15:48.297Z,47.85
2023-02-12T09:16:48.341Z,47.75
2023-02-12T09:17:48.330Z,47.85
2023-02-12T09:18:49.051Z,47.85
2023-02-12T09:19:48.278Z,47.85
2023-02-12T09:20:48.828Z,47.95
2023-02-12T09:21:48.256Z,47.85
2023-02-12T09:22:48.336Z,47.95
2023-02-12T09:23:48.274Z,47.95
2023-02-12T09:24:48.236Z,47.95
2023-02-12T09:25:48.392Z,47.95
2023-02-12T09:26:48.254Z,48.05
2023-02-12T09:27:48.177Z,48.05
2023-02-12T09:28:49.148Z,48.05
2023-02-12T09:29:48.295Z,48.05
2023-02-12T09:30:48.323Z,48.02
2023-02-12T09:31:48.258Z,48.02
2023-02-12T09:32:48.597Z,48.02
2023-02-12T09:33:51.659Z,48.13
2023-02-12T09:34:49.047Z,48.02
2023-02-12T09:35:48.040Z,48.02
2023-02-12T09:36:48.259Z,48.13
2023-02-12T09:37:48.032Z,48.13
2023-02-12T09:38:48.592Z,48.13
2023-02-12T09:39:51.213Z,48.22
2023-02-12T09:40:47.978Z,48.22
2023-02-12T09:41:47.979Z,48.22
2023-02-12T09:42:48.069Z,48.22
2023-02-12T09:43:48.004Z,48.22
2023-02-12T09:44:48.158Z,48.22
2023-02-12T09:45:50.335Z,48.22
2023-02-12T09:46:47.997Z,48.22
2023-02-12T09:47:47.918Z,48.22
2023-02-12T09:48:47.894Z,48.22
2023-02-12T09:49:47.893Z,48.22
2023-02-12T09:50:48.570Z,48.20
2023-02-12T09:51:51.021Z,48.13
2023-02-12T09:52:47.883Z,48.20
2023-02-12T09:53:47.854Z,48.10
2023-02-12T09:54:47.825Z,48.10
2023-02-12T09:55:47.777Z,48.10
2023-02-12T09:56:49.241Z,48.20
2023-02-12T09:57:47.775Z,48.20
2023-02-12T09:58:47.714Z,48.20
2023-02-12T09:59:47.692Z,48.20
2023-02-12T10:00:47.711Z,48.20
2023-02-12T10:01:47.850Z,48.30
2023-02-12T10:02:48.328Z,48.30
2023-02-12T10:03:47.683Z,48.30
2023-02-12T10:05:00.175Z,48.50
2023-02-12T10:05:48.769Z,48.40
2023-02-12T10:06:47.640Z,48.50
2023-02-12T10:07:47.637Z,48.40
2023-02-12T10:08:47.654Z,48.50
2023-02-12T10:09:47.733Z,48.50
2023-02-12T10:10:47.524Z,48.60
2023-02-12T10:11:47.885Z,48.50
2023-02-12T10:12:47.492Z,48.50
2023-02-12T10:13:47.542Z,48.60
2023-02-12T10:14:47.633Z,48.60
2023-02-12T10:15:47.521Z,48.60
2023-02-12T10:16:47.621Z,48.58
2023-02-12T10:17:48.469Z,48.58
2023-02-12T10:18:47.649Z,48.68
2023-02-12T10:19:47.815Z,48.68
2023-02-12T10:20:47.515Z,48.68
2023-02-12T10:21:48.576Z,48.78
2023-02-12T10:22:56.586Z,48.68
2023-02-12T10:23:48.722Z,48.68
2023-02-12T10:24:47.345Z,48.78
2023-02-12T10:25:47.359Z,48.78
2023-02-12T10:26:47.546Z,48.78
2023-02-12T10:27:47.365Z,48.78
2023-02-12T10:28:47.597Z,48.78
2023-02-12T10:29:47.384Z,48.78
2023-02-12T10:30:47.319Z,48.78
2023-02-12T10:31:47.399Z,48.78
2023-02-12T10:32:47.565Z,48.78
2023-02-12T10:33:47.248Z,48.78
2023-02-12T10:34:47.179Z,48.78
2023-02-12T10:35:47.300Z,48.78
2023-02-12T10:36:47.281Z,48.78
2023-02-12T10:37:47.181Z,48.78
2023-02-12T10:38:47.461Z,48.88
2023-02-12T10:39:47.150Z,48.88
2023-02-12T10:40:47.208Z,48.75
2023-02-12T10:41:47.190Z,48.85
2023-02-12T10:42:47.136Z,48.85
2023-02-12T10:43:47.096Z,48.85
2023-02-12T10:44:47.195Z,48.85
2023-02-12T10:45:47.174Z,48.85
2023-02-12T10:46:47.080Z,48.85
2023-02-12T10:47:47.415Z,48.85
2023-02-12T10:48:47.001Z,48.85
2023-02-12T10:49:47.005Z,48.85
2023-02-12T10:50:47.321Z,48.75
2023-02-12T10:51:47.020Z,48.85
2023-02-12T10:52:46.974Z,48.85
2023-02-12T10:53:47.073Z,48.85
2023-02-12T10:54:46.958Z,48.85
2023-02-12T10:55:47.003Z,48.85
2023-02-12T10:56:47.051Z,48.85
2023-02-12T10:57:47.641Z,48.85
2023-02-12T10:58:46.906Z,48.85
2023-02-12T10:59:46.926Z,48.93
2023-02-12T11:00:46.871Z,48.93
2023-02-12T11:01:46.915Z,48.93
2023-02-12T11:02:46.986Z,48.93
2023-02-12T11:03:47.824Z,48.93
2023-02-12T11:04:46.810Z,48.93
2023-02-12T11:05:47.862Z,49.03
2023-02-12T11:06:47.764Z,48.93
2023-02-12T11:07:46.925Z,48.93
2023-02-12T11:08:47.775Z,49.03
2023-02-12T11:09:47.686Z,48.93
2023-02-12T11:10:46.705Z,48.93
2023-02-12T11:11:48.062Z,48.93
2023-02-12T11:12:46.693Z,48.93
2023-02-12T11:13:47.604Z,48.93
2023-02-12T11:14:46.913Z,49.03
2023-02-12T11:15:46.673Z,48.93
2023-02-12T11:16:46.831Z,48.83
2023-02-12T11:17:46.819Z,48.83
2023-02-12T11:18:46.693Z,48.93
2023-02-12T11:19:46.730Z,48.83
2023-02-12T11:20:46.770Z,48.83
2023-02-12T11:21:46.557Z,48.83
2023-02-12T11:22:46.706Z,48.83
2023-02-12T11:23:46.567Z,48.71
2023-02-12T11:24:46.626Z,48.80
2023-02-12T11:25:46.503Z,48.71
2023-02-12T11:26:46.604Z,48.71
2023-02-12T11:27:46.518Z,48.71
2023-02-12T11:28:46.542Z,48.71
2023-02-12T11:29:48.090Z,48.71
2023-02-12T11:30:46.466Z,48.71
2023-02-12T11:31:46.508Z,48.80
2023-02-12T11:32:46.801Z,48.80
2023-02-12T11:33:46.367Z,48.80
2023-02-12T11:34:46.884Z,48.80
2023-02-12T11:35:46.437Z,48.80
2023-02-12T11:36:46.349Z,49.01
2023-02-12T11:37:46.615Z,50.70
2023-02-12T11:38:46.370Z,50.20
2023-02-12T11:39:46.390Z,50.60
2023-02-12T11:40:46.366Z,50.60
2023-02-12T11:41:46.343Z,50.70
2023-02-12T11:42:46.337Z,51.37
2023-02-12T11:43:46.300Z,51.17
2023-02-12T11:44:46.591Z,51.17
2023-02-12T11:45:46.217Z,52.67
2023-02-12T11:46:46.200Z,53.46
2023-02-12T11:47:46.298Z,54.06
2023-02-12T11:48:46.150Z,54.63
2023-02-12T11:49:46.183Z,54.83
2023-02-12T11:50:46.224Z,55.23
2023-02-12T11:51:46.171Z,55.43
2023-02-12T11:52:46.293Z,55.73
2023-02-12T11:53:46.207Z,55.93
2023-02-12T11:54:46.145Z,56.02
2023-02-12T11:55:46.097Z,55.40
2023-02-12T11:56:46.153Z,55.30
2023-02-12T11:57:46.093Z,54.80
2023-02-12T11:58:46.134Z,54.50
2023-02-12T11:59:46.077Z,54.31
2023-02-12T12:00:45.989Z,53.81
2023-02-12T12:01:46.165Z,53.31
2023-02-12T12:02:46.584Z,53.11
2023-02-12T12:03:45.978Z,52.81
2023-02-12T12:04:45.961Z,52.42
2023-02-12T12:05:45.986Z,51.92
2023-02-12T12:06:45.953Z,51.82
2023-02-12T12:07:46.305Z,51.32
2023-02-12T12:08:45.980Z,51.22
2023-02-12T12:09:45.876Z,51.32
2023-02-12T12:10:45.898Z,51.42
2023-02-12T12:11:46.446Z,51.62
2023-02-12T12:12:46.836Z,51.72
2023-02-12T12:13:46.134Z,51.72
2023-02-12T12:14:46.574Z,52.02
2023-02-12T12:15:45.795Z,52.12
2023-02-12T12:16:45.869Z,52.19
2023-02-12T12:17:45.834Z,52.39
2023-02-12T12:18:45.739Z,52.29
2023-02-12T12:19:45.779Z,52.49
2023-02-12T12:20:45.948Z,52.49
2023-02-12T12:21:45.775Z,52.59
2023-02-12T12:22:45.716Z,52.59
2023-02-12T12:23:46.841Z,52.59
2023-02-12T12:24:45.664Z,52.49
2023-02-12T12:25:45.727Z,52.39
2023-02-12T12:26:45.861Z,52.29
2023-02-12T12:27:45.646Z,52.59
2023-02-12T12:28:45.590Z,52.59
2023-02-12T12:29:45.767Z,52.59
2023-02-12T12:30:45.609Z,52.59
2023-02-12T12:31:45.677Z,52.37
2023-02-12T12:32:45.638Z,52.67
2023-02-12T12:33:46.377Z,52.56
2023-02-12T12:34:45.584Z,53.46
2023-02-12T12:35:45.947Z,53.36
2023-02-12T12:36:45.819Z,53.06
2023-02-12T12:37:45.511Z,53.16
2023-02-12T12:38:45.577Z,52.67
2023-02-12T12:39:45.454Z,52.37
2023-02-12T12:40:48.448Z,52.67
2023-02-12T12:41:45.600Z,53.26
2023-02-12T12:42:45.434Z,53.26
2023-02-12T12:43:45.405Z,53.16
2023-02-12T12:44:45.548Z,52.67
2023-02-12T12:45:45.426Z,52.47
2023-02-12T12:46:45.368Z,52.37
2023-02-12T12:47:46.257Z,52.24
2023-02-12T12:48:45.341Z,52.17
2023-02-12T12:49:45.590Z,52.17
2023-02-12T12:50:45.797Z,52.14
2023-02-12T12:51:46.038Z,52.04
2023-02-12T12:52:45.298Z,52.04